sensor_id;sensor_type;location;lat;lon;timestamp;pressure;altitude;pressure_sealevel;temperature;humidity
12775;BME280;6451;42.630;23.382;2023-07-02T00:00:11;93787.06;;;21.23;100.00
12775;BME280;6451;42.630;23.382;2023-07-02T00:02:38;93761.50;;;21.02;100.00
12775;BME280;6451;42.630;23.382;2023-07-02T00:05:06;93779.41;;;20.54;100.00
12775;BME280;6451;42.630;23.382;2023-07-02T00:07:33;93784.78;;;20.62;100.00
12775;BME280;6451;42.630;23.382;2023-07-02T00:10:01;93783.56;;;20.82;100.00
12775;BME280;6451;42.630;23.382;2023-07-02T00:12:29;93767.13;;;20.79;100.00
12775;BME280;6451;42.630;23.382;2023-07-02T00:14:56;93770.22;;;20.81;100.00
12775;BME280;6451;42.630;23.382;2023-07-02T00:17:24;93781.03;;;20.92;100.00
12775;BME280;6451;42.630;23.382;2023-07-02T00:19:51;93763.19;;;20.96;100.00
12775;BME280;6451;42.630;23.382;2023-07-02T00:22:18;93768.84;;;21.09;100.00
12775;BME280;6451;42.630;23.382;2023-07-02T00:24:45;93756.63;;;20.90;100.00
12775;BME280;6451;42.630;23.382;2023-07-02T00:27:12;93769.56;;;20.93;100.00
12775;BME280;6451;42.630;23.382;2023-07-02T00:29:39;93719.09;;;20.76;100.00
12775;BME280;6451;42.630;23.382;2023-07-02T00:32:06;93770.56;;;21.03;100.00
12775;BME280;6451;42.630;23.382;2023-07-02T00:34:34;93752.84;;;21.00;100.00
12775;BME280;6451;42.630;23.382;2023-07-02T00:37:01;93748.91;;;21.01;100.00
12775;BME280;6451;42.630;23.382;2023-07-02T00:39:28;93772.22;;;21.17;100.00
12775;BME280;6451;42.630;23.382;2023-07-02T00:42:00;93779.34;;;21.34;100.00
12775;BME280;6451;42.630;23.382;2023-07-02T00:44:28;93768.94;;;21.22;100.00
12775;BME280;6451;42.630;23.382;2023-07-02T00:46:55;93783.81;;;21.28;100.00
12775;BME280;6451;42.630;23.382;2023-07-02T00:49:22;93782.56;;;21.32;100.00
12775;BME280;6451;42.630;23.382;2023-07-02T00:51:51;93781.91;;;21.25;100.00
12775;BME280;6451;42.630;23.382;2023-07-02T00:54:17;93782.63;;;21.29;100.00
12775;BME280;6451;42.630;23.382;2023-07-02T00:56:44;93778.44;;;21.21;100.00
12775;BME280;6451;42.630;23.382;2023-07-02T00:59:11;93786.34;;;21.38;100.00
12775;BME280;6451;42.630;23.382;2023-07-02T01:01:38;93796.00;;;21.47;100.00
12775;BME280;6451;42.630;23.382;2023-07-02T01:04:06;93791.19;;;21.51;100.00
12775;BME280;6451;42.630;23.382;2023-07-02T01:06:35;93770.16;;;21.41;100.00
12775;BME280;6451;42.630;23.382;2023-07-02T01:09:07;93775.22;;;21.42;100.00
12775;BME280;6451;42.630;23.382;2023-07-02T01:11:35;93785.78;;;21.47;100.00
12775;BME280;6451;42.630;23.382;2023-07-02T01:14:06;93769.41;;;21.00;100.00
12775;BME280;6451;42.630;23.382;2023-07-02T01:16:36;93791.84;;;21.02;100.00
12775;BME280;6451;42.630;23.382;2023-07-02T01:19:10;93793.72;;;21.25;100.00
12775;BME280;6451;42.630;23.382;2023-07-02T01:21:39;93792.84;;;21.48;100.00
12775;BME280;6451;42.630;23.382;2023-07-02T01:24:06;93785.94;;;21.20;100.00
12775;BME280;6451;42.630;23.382;2023-07-02T01:26:34;93808.16;;;21.33;100.00
12775;BME280;6451;42.630;23.382;2023-07-02T01:29:13;93804.47;;;21.20;100.00
12775;BME280;6451;42.630;23.382;2023-07-02T01:31:40;93753.47;;;20.52;100.00
12775;BME280;6451;42.630;23.382;2023-07-02T01:34:09;93794.31;;;20.77;100.00
12775;BME280;6451;42.630;23.382;2023-07-02T01:36:36;93801.59;;;21.07;100.00
12775;BME280;6451;42.630;23.382;2023-07-02T01:39:05;93774.50;;;20.42;100.00
12775;BME280;6451;42.630;23.382;2023-07-02T01:41:37;93717.00;;;20.01;100.00
12775;BME280;6451;42.630;23.382;2023-07-02T01:44:04;93746.13;;;20.22;100.00
12775;BME280;6451;42.630;23.382;2023-07-02T01:46:31;93736.97;;;20.28;100.00
12775;BME280;6451;42.630;23.382;2023-07-02T01:48:58;93721.28;;;20.25;100.00
12775;BME280;6451;42.630;23.382;2023-07-02T01:51:25;93755.69;;;20.37;100.00
12775;BME280;6451;42.630;23.382;2023-07-02T01:53:52;93754.03;;;20.63;100.00
12775;BME280;6451;42.630;23.382;2023-07-02T01:56:20;93714.50;;;20.10;100.00
12775;BME280;6451;42.630;23.382;2023-07-02T01:58:47;93740.31;;;20.60;100.00
12775;BME280;6451;42.630;23.382;2023-07-02T02:01:14;93732.53;;;20.74;100.00
12775;BME280;6451;42.630;23.382;2023-07-02T02:03:42;93716.94;;;20.48;100.00
12775;BME280;6451;42.630;23.382;2023-07-02T02:06:09;93734.66;;;20.47;100.00
12775;BME280;6451;42.630;23.382;2023-07-02T02:08:36;93755.56;;;20.24;100.00
12775;BME280;6451;42.630;23.382;2023-07-02T02:11:02;93731.22;;;20.39;100.00
12775;BME280;6451;42.630;23.382;2023-07-02T02:13:31;93743.56;;;20.54;100.00
12775;BME280;6451;42.630;23.382;2023-07-02T02:15:58;93763.78;;;20.68;100.00
12775;BME280;6451;42.630;23.382;2023-07-02T02:18:24;93751.16;;;20.27;100.00
12775;BME280;6451;42.630;23.382;2023-07-02T02:20:51;93731.50;;;20.05;100.00
12775;BME280;6451;42.630;23.382;2023-07-02T02:23:18;93745.06;;;20.16;100.00
12775;BME280;6451;42.630;23.382;2023-07-02T02:25:46;93751.72;;;20.38;100.00
12775;BME280;6451;42.630;23.382;2023-07-02T02:28:13;93749.50;;;20.53;100.00
12775;BME280;6451;42.630;23.382;2023-07-02T02:30:42;93752.88;;;20.41;100.00
12775;BME280;6451;42.630;23.382;2023-07-02T02:33:09;93755.44;;;20.51;100.00
12775;BME280;6451;42.630;23.382;2023-07-02T02:35:36;93743.06;;;20.60;100.00
12775;BME280;6451;42.630;23.382;2023-07-02T02:38:04;93721.78;;;20.40;100.00
12775;BME280;6451;42.630;23.382;2023-07-02T02:40:30;93748.88;;;20.45;100.00
12775;BME280;6451;42.630;23.382;2023-07-02T02:42:57;93718.41;;;20.33;100.00
12775;BME280;6451;42.630;23.382;2023-07-02T02:45:24;93722.84;;;20.46;100.00
12775;BME280;6451;42.630;23.382;2023-07-02T02:47:53;93708.84;;;20.37;100.00
12775;BME280;6451;42.630;23.382;2023-07-02T02:50:24;93733.09;;;20.26;100.00
12775;BME280;6451;42.630;23.382;2023-07-02T02:52:50;93741.69;;;19.85;100.00
12775;BME280;6451;42.630;23.382;2023-07-02T02:55:17;93723.03;;;19.73;100.00
12775;BME280;6451;42.630;23.382;2023-07-02T02:57:44;93727.88;;;19.88;100.00
12775;BME280;6451;42.630;23.382;2023-07-02T03:00:12;93727.75;;;20.15;100.00
12775;BME280;6451;42.630;23.382;2023-07-02T03:02:39;93730.47;;;20.19;100.00
12775;BME280;6451;42.630;23.382;2023-07-02T03:05:08;93733.50;;;20.24;100.00
12775;BME280;6451;42.630;23.382;2023-07-02T03:07:35;93734.56;;;20.11;100.00
12775;BME280;6451;42.630;23.382;2023-07-02T03:10:02;93730.81;;;20.21;100.00
12775;BME280;6451;42.630;23.382;2023-07-02T03:12:29;93742.75;;;20.14;100.00
12775;BME280;6451;42.630;23.382;2023-07-02T03:14:56;93675.91;;;19.90;100.00
12775;BME280;6451;42.630;23.382;2023-07-02T03:17:26;93735.41;;;20.27;100.00
12775;BME280;6451;42.630;23.382;2023-07-02T03:19:53;93747.47;;;20.14;100.00
12775;BME280;6451;42.630;23.382;2023-07-02T03:22:21;93740.19;;;20.23;100.00
12775;BME280;6451;42.630;23.382;2023-07-02T03:24:48;93729.28;;;19.96;100.00
12775;BME280;6451;42.630;23.382;2023-07-02T03:27:15;93692.19;;;19.81;100.00
12775;BME280;6451;42.630;23.382;2023-07-02T03:29:42;93731.44;;;19.85;100.00
12775;BME280;6451;42.630;23.382;2023-07-02T03:32:09;93755.38;;;20.12;100.00
12775;BME280;6451;42.630;23.382;2023-07-02T03:34:36;93738.72;;;20.39;100.00
12775;BME280;6451;42.630;23.382;2023-07-02T03:37:03;93726.22;;;20.34;100.00
12775;BME280;6451;42.630;23.382;2023-07-02T03:39:31;93762.00;;;20.14;100.00
12775;BME280;6451;42.630;23.382;2023-07-02T03:41:58;93763.41;;;20.46;100.00
12775;BME280;6451;42.630;23.382;2023-07-02T03:44:25;93763.47;;;20.42;100.00
12775;BME280;6451;42.630;23.382;2023-07-02T03:46:52;93770.28;;;20.77;100.00
12775;BME280;6451;42.630;23.382;2023-07-02T03:49:19;93757.41;;;20.91;100.00
12775;BME280;6451;42.630;23.382;2023-07-02T03:51:46;93733.94;;;20.43;100.00
12775;BME280;6451;42.630;23.382;2023-07-02T03:54:13;93761.09;;;20.64;100.00
12775;BME280;6451;42.630;23.382;2023-07-02T03:56:41;93755.72;;;20.77;100.00
12775;BME280;6451;42.630;23.382;2023-07-02T03:59:08;93756.22;;;20.72;100.00
12775;BME280;6451;42.630;23.382;2023-07-02T04:01:36;93766.09;;;20.89;100.00
12775;BME280;6451;42.630;23.382;2023-07-02T04:04:03;93748.94;;;21.18;100.00
12775;BME280;6451;42.630;23.382;2023-07-02T04:06:33;93759.63;;;21.16;100.00
12775;BME280;6451;42.630;23.382;2023-07-02T04:09:00;93735.53;;;21.00;100.00
12775;BME280;6451;42.630;23.382;2023-07-02T04:11:27;93708.97;;;20.90;100.00
12775;BME280;6451;42.630;23.382;2023-07-02T04:13:55;93758.47;;;20.77;100.00
12775;BME280;6451;42.630;23.382;2023-07-02T04:16:22;93765.91;;;20.80;100.00
12775;BME280;6451;42.630;23.382;2023-07-02T04:18:50;93743.84;;;20.80;100.00
12775;BME280;6451;42.630;23.382;2023-07-02T04:21:17;93731.72;;;20.58;100.00
12775;BME280;6451;42.630;23.382;2023-07-02T04:23:44;93789.47;;;20.65;100.00
12775;BME280;6451;42.630;23.382;2023-07-02T04:26:11;93790.69;;;20.40;100.00
12775;BME280;6451;42.630;23.382;2023-07-02T04:28:38;93789.66;;;20.74;100.00
12775;BME280;6451;42.630;23.382;2023-07-02T04:31:06;93783.63;;;20.99;100.00
12775;BME280;6451;42.630;23.382;2023-07-02T04:33:33;93787.44;;;21.05;100.00
12775;BME280;6451;42.630;23.382;2023-07-02T04:36:02;93783.00;;;20.91;100.00
12775;BME280;6451;42.630;23.382;2023-07-02T04:38:30;93799.81;;;20.77;100.00
12775;BME280;6451;42.630;23.382;2023-07-02T04:40:58;93811.81;;;20.70;100.00
12775;BME280;6451;42.630;23.382;2023-07-02T04:43:30;93793.00;;;20.42;100.00
12775;BME280;6451;42.630;23.382;2023-07-02T04:45:58;93800.75;;;20.50;100.00
12775;BME280;6451;42.630;23.382;2023-07-02T04:48:26;93830.72;;;20.68;100.00
12775;BME280;6451;42.630;23.382;2023-07-02T04:50:53;93779.41;;;20.54;100.00
12775;BME280;6451;42.630;23.382;2023-07-02T04:53:20;93820.53;;;21.05;100.00
12775;BME280;6451;42.630;23.382;2023-07-02T04:55:47;93799.34;;;20.82;100.00
12775;BME280;6451;42.630;23.382;2023-07-02T04:58:14;93837.31;;;20.94;100.00
12775;BME280;6451;42.630;23.382;2023-07-02T05:00:41;93813.06;;;20.66;100.00
12775;BME280;6451;42.630;23.382;2023-07-02T05:03:08;93844.81;;;20.94;100.00
12775;BME280;6451;42.630;23.382;2023-07-02T05:05:36;93831.28;;;20.99;100.00
12775;BME280;6451;42.630;23.382;2023-07-02T05:08:03;93836.47;;;20.97;100.00
12775;BME280;6451;42.630;23.382;2023-07-02T05:10:31;93825.34;;;21.01;100.00
12775;BME280;6451;42.630;23.382;2023-07-02T05:12:58;93813.25;;;21.15;100.00
12775;BME280;6451;42.630;23.382;2023-07-02T05:15:24;93847.63;;;21.30;100.00
12775;BME280;6451;42.630;23.382;2023-07-02T05:17:51;93834.22;;;21.32;100.00
12775;BME280;6451;42.630;23.382;2023-07-02T05:20:18;93837.50;;;21.43;100.00
12775;BME280;6451;42.630;23.382;2023-07-02T05:22:47;93841.53;;;21.38;100.00
12775;BME280;6451;42.630;23.382;2023-07-02T05:25:14;93856.28;;;21.32;100.00
12775;BME280;6451;42.630;23.382;2023-07-02T05:27:41;93848.84;;;21.49;100.00
12775;BME280;6451;42.630;23.382;2023-07-02T05:30:08;93853.28;;;21.23;100.00
12775;BME280;6451;42.630;23.382;2023-07-02T05:32:35;93849.75;;;21.22;100.00
12775;BME280;6451;42.630;23.382;2023-07-02T05:35:02;93837.16;;;21.21;100.00
12775;BME280;6451;42.630;23.382;2023-07-02T05:37:29;93790.41;;;21.14;100.00
12775;BME280;6451;42.630;23.382;2023-07-02T05:39:58;93823.38;;;21.41;100.00
12775;BME280;6451;42.630;23.382;2023-07-02T05:42:25;93836.94;;;21.68;100.00
12775;BME280;6451;42.630;23.382;2023-07-02T05:44:52;93812.63;;;21.79;100.00
12775;BME280;6451;42.630;23.382;2023-07-02T05:47:19;93802.03;;;21.78;100.00
12775;BME280;6451;42.630;23.382;2023-07-02T05:49:46;93837.94;;;22.27;100.00
12775;BME280;6451;42.630;23.382;2023-07-02T05:52:13;93842.94;;;21.99;100.00
12775;BME280;6451;42.630;23.382;2023-07-02T05:54:40;93836.94;;;21.68;100.00
12775;BME280;6451;42.630;23.382;2023-07-02T05:57:09;93809.25;;;22.04;100.00
12775;BME280;6451;42.630;23.382;2023-07-02T05:59:37;93836.03;;;22.24;100.00
12775;BME280;6451;42.630;23.382;2023-07-02T06:02:04;93840.88;;;22.36;100.00
12775;BME280;6451;42.630;23.382;2023-07-02T06:04:31;93836.16;;;22.65;100.00
12775;BME280;6451;42.630;23.382;2023-07-02T06:06:58;93825.88;;;22.66;100.00
12775;BME280;6451;42.630;23.382;2023-07-02T06:09:25;93795.94;;;22.48;100.00
12775;BME280;6451;42.630;23.382;2023-07-02T06:11:52;93834.38;;;23.29;100.00
12775;BME280;6451;42.630;23.382;2023-07-02T06:14:20;93805.50;;;23.43;100.00
12775;BME280;6451;42.630;23.382;2023-07-02T06:16:47;93820.72;;;23.77;100.00
12775;BME280;6451;42.630;23.382;2023-07-02T06:19:14;93821.25;;;23.59;100.00
12775;BME280;6451;42.630;23.382;2023-07-02T06:21:40;93828.69;;;23.75;100.00
12775;BME280;6451;42.630;23.382;2023-07-02T06:24:07;93832.34;;;23.97;100.00
12775;BME280;6451;42.630;23.382;2023-07-02T06:26:34;93825.03;;;23.91;100.00
12775;BME280;6451;42.630;23.382;2023-07-02T06:29:01;93818.19;;;23.82;100.00
12775;BME280;6451;42.630;23.382;2023-07-02T06:31:29;93819.50;;;23.65;100.00
12775;BME280;6451;42.630;23.382;2023-07-02T06:33:56;93780.97;;;22.74;100.00
12775;BME280;6451;42.630;23.382;2023-07-02T06:36:23;93801.88;;;23.59;100.00
12775;BME280;6451;42.630;23.382;2023-07-02T06:38:50;93820.16;;;23.56;100.00
12775;BME280;6451;42.630;23.382;2023-07-02T06:41:17;93825.34;;;23.42;100.00
12775;BME280;6451;42.630;23.382;2023-07-02T06:43:44;93825.53;;;23.35;100.00
12775;BME280;6451;42.630;23.382;2023-07-02T06:46:12;93814.88;;;23.62;100.00
12775;BME280;6451;42.630;23.382;2023-07-02T06:48:40;93818.13;;;23.44;100.00
12775;BME280;6451;42.630;23.382;2023-07-02T06:51:07;93816.03;;;23.48;100.00
12775;BME280;6451;42.630;23.382;2023-07-02T06:53:34;93814.97;;;23.71;100.00
12775;BME280;6451;42.630;23.382;2023-07-02T06:56:01;93822.28;;;23.91;100.00
12775;BME280;6451;42.630;23.382;2023-07-02T06:58:27;93815.47;;;23.41;100.00
12775;BME280;6451;42.630;23.382;2023-07-02T07:00:54;93806.97;;;23.48;100.00
12775;BME280;6451;42.630;23.382;2023-07-02T07:03:21;93813.78;;;23.30;100.00
12775;BME280;6451;42.630;23.382;2023-07-02T07:05:50;93810.19;;;23.46;100.00
12775;BME280;6451;42.630;23.382;2023-07-02T07:08:16;93798.88;;;22.99;100.00
12775;BME280;6451;42.630;23.382;2023-07-02T07:10:43;93835.81;;;23.63;100.00
12775;BME280;6451;42.630;23.382;2023-07-02T07:13:11;93825.06;;;23.78;100.00
12775;BME280;6451;42.630;23.382;2023-07-02T07:15:41;93828.13;;;24.05;100.00
12775;BME280;6451;42.630;23.382;2023-07-02T07:18:10;93811.72;;;23.98;100.00
12775;BME280;6451;42.630;23.382;2023-07-02T07:20:38;93802.94;;;23.36;100.00
12775;BME280;6451;42.630;23.382;2023-07-02T07:23:07;93835.25;;;23.81;100.00
12775;BME280;6451;42.630;23.382;2023-07-02T07:25:34;93800.09;;;23.91;100.00
12775;BME280;6451;42.630;23.382;2023-07-02T07:28:01;93831.31;;;23.40;100.00
12775;BME280;6451;42.630;23.382;2023-07-02T07:30:28;93829.72;;;23.94;100.00
12775;BME280;6451;42.630;23.382;2023-07-02T07:32:55;93808.19;;;23.98;100.00
12775;BME280;6451;42.630;23.382;2023-07-02T07:35:22;93809.97;;;24.04;100.00
12775;BME280;6451;42.630;23.382;2023-07-02T07:37:49;93810.69;;;24.30;100.00
12775;BME280;6451;42.630;23.382;2023-07-02T07:40:18;93820.03;;;23.98;100.00
12775;BME280;6451;42.630;23.382;2023-07-02T07:42:45;93780.44;;;24.23;100.00
12775;BME280;6451;42.630;23.382;2023-07-02T07:45:13;93819.53;;;23.78;100.00
12775;BME280;6451;42.630;23.382;2023-07-02T07:47:40;93808.00;;;23.79;100.00
12775;BME280;6451;42.630;23.382;2023-07-02T07:50:07;93794.03;;;23.70;100.00
12775;BME280;6451;42.630;23.382;2023-07-02T07:52:37;93822.47;;;23.58;100.00
12775;BME280;6451;42.630;23.382;2023-07-02T07:55:04;93824.28;;;23.77;100.00
12775;BME280;6451;42.630;23.382;2023-07-02T07:57:33;93818.28;;;23.92;100.00
12775;BME280;6451;42.630;23.382;2023-07-02T08:00:01;93809.72;;;24.24;100.00
12775;BME280;6451;42.630;23.382;2023-07-02T08:02:30;93689.97;;;23.44;100.00
12775;BME280;6451;42.630;23.382;2023-07-02T08:04:57;93823.13;;;24.13;100.00
12775;BME280;6451;42.630;23.382;2023-07-02T08:07:24;93788.25;;;24.50;100.00
12775;BME280;6451;42.630;23.382;2023-07-02T08:09:51;93823.63;;;23.73;100.00
12775;BME280;6451;42.630;23.382;2023-07-02T08:12:18;93831.44;;;24.26;100.00
12775;BME280;6451;42.630;23.382;2023-07-02T08:14:46;93811.13;;;24.42;100.00
12775;BME280;6451;42.630;23.382;2023-07-02T08:17:13;93833.31;;;24.76;100.00
12775;BME280;6451;42.630;23.382;2023-07-02T08:19:40;93823.09;;;24.86;100.00
12775;BME280;6451;42.630;23.382;2023-07-02T08:22:07;93825.59;;;24.71;100.00
12775;BME280;6451;42.630;23.382;2023-07-02T08:24:35;93825.25;;;25.26;100.00
12775;BME280;6451;42.630;23.382;2023-07-02T08:27:03;93823.63;;;24.59;100.00
12775;BME280;6451;42.630;23.382;2023-07-02T08:29:30;93818.91;;;25.03;100.00
12775;BME280;6451;42.630;23.382;2023-07-02T08:31:58;93812.81;;;24.95;100.00
12775;BME280;6451;42.630;23.382;2023-07-02T08:34:26;93822.50;;;24.91;100.00
12775;BME280;6451;42.630;23.382;2023-07-02T08:36:53;93824.56;;;25.00;100.00
12775;BME280;6451;42.630;23.382;2023-07-02T08:39:20;93809.66;;;25.28;100.00
12775;BME280;6451;42.630;23.382;2023-07-02T08:42:05;93803.22;;;25.31;100.00
12775;BME280;6451;42.630;23.382;2023-07-02T08:44:33;93822.22;;;24.98;100.00
12775;BME280;6451;42.630;23.382;2023-07-02T08:47:02;93817.91;;;24.97;100.00
12775;BME280;6451;42.630;23.382;2023-07-02T08:49:30;93819.03;;;25.21;100.00
12775;BME280;6451;42.630;23.382;2023-07-02T08:51:58;93805.34;;;25.27;100.00
12775;BME280;6451;42.630;23.382;2023-07-02T08:54:24;93791.34;;;25.09;100.00
12775;BME280;6451;42.630;23.382;2023-07-02T08:56:51;93806.13;;;25.90;100.00
12775;BME280;6451;42.630;23.382;2023-07-02T08:59:20;93801.91;;;25.76;100.00
12775;BME280;6451;42.630;23.382;2023-07-02T09:01:48;93806.56;;;25.79;100.00
12775;BME280;6451;42.630;23.382;2023-07-02T09:04:18;93797.41;;;25.38;100.00
12775;BME280;6451;42.630;23.382;2023-07-02T09:06:45;93791.44;;;25.80;100.00
12775;BME280;6451;42.630;23.382;2023-07-02T09:09:12;93800.50;;;26.12;100.00
12775;BME280;6451;42.630;23.382;2023-07-02T09:11:48;93800.06;;;25.51;100.00
12775;BME280;6451;42.630;23.382;2023-07-02T09:14:25;93789.19;;;26.06;100.00
12775;BME280;6451;42.630;23.382;2023-07-02T09:17:07;93790.72;;;25.98;100.00
12775;BME280;6451;42.630;23.382;2023-07-02T09:19:36;93797.72;;;26.12;100.00
12775;BME280;6451;42.630;23.382;2023-07-02T09:22:03;93785.66;;;26.15;100.00
12775;BME280;6451;42.630;23.382;2023-07-02T09:24:31;93795.34;;;26.96;100.00
12775;BME280;6451;42.630;23.382;2023-07-02T09:27:00;93790.97;;;27.41;100.00
12775;BME280;6451;42.630;23.382;2023-07-02T09:29:28;93787.09;;;27.99;100.00
12775;BME280;6451;42.630;23.382;2023-07-02T09:31:57;93769.69;;;28.04;100.00
12775;BME280;6451;42.630;23.382;2023-07-02T09:34:28;93792.09;;;27.25;100.00
12775;BME280;6451;42.630;23.382;2023-07-02T09:36:58;93795.22;;;27.79;100.00
12775;BME280;6451;42.630;23.382;2023-07-02T09:39:26;93792.81;;;27.53;100.00
12775;BME280;6451;42.630;23.382;2023-07-02T09:41:55;93777.44;;;27.58;100.00
12775;BME280;6451;42.630;23.382;2023-07-02T09:44:22;93788.66;;;27.91;100.00
12775;BME280;6451;42.630;23.382;2023-07-02T09:46:58;93782.78;;;27.89;100.00
12775;BME280;6451;42.630;23.382;2023-07-02T09:49:27;93752.31;;;27.25;100.00
12775;BME280;6451;42.630;23.382;2023-07-02T09:51:58;93789.59;;;27.46;100.00
12775;BME280;6451;42.630;23.382;2023-07-02T09:54:26;93766.47;;;27.54;100.00
12775;BME280;6451;42.630;23.382;2023-07-02T09:56:53;93786.94;;;27.93;100.00
12775;BME280;6451;42.630;23.382;2023-07-02T09:59:20;93774.41;;;27.89;100.00
12775;BME280;6451;42.630;23.382;2023-07-02T10:01:47;93795.06;;;28.15;100.00
12775;BME280;6451;42.630;23.382;2023-07-02T10:04:14;93782.38;;;27.72;100.00
12775;BME280;6451;42.630;23.382;2023-07-02T10:06:47;93775.28;;;27.62;100.00
12775;BME280;6451;42.630;23.382;2023-07-02T10:09:17;93786.22;;;28.17;100.00
12775;BME280;6451;42.630;23.382;2023-07-02T10:11:44;93784.28;;;27.99;100.00
12775;BME280;6451;42.630;23.382;2023-07-02T10:14:11;93750.59;;;28.12;100.00
12775;BME280;6451;42.630;23.382;2023-07-02T10:16:52;93769.47;;;28.17;100.00
12775;BME280;6451;42.630;23.382;2023-07-02T10:19:20;93775.13;;;27.98;100.00
12775;BME280;6451;42.630;23.382;2023-07-02T10:22:00;93767.59;;;27.48;100.00
12775;BME280;6451;42.630;23.382;2023-07-02T10:24:29;93757.13;;;27.24;100.00
12775;BME280;6451;42.630;23.382;2023-07-02T10:26:57;93535.72;;;26.08;100.00
12775;BME280;6451;42.630;23.382;2023-07-02T10:29:25;93745.44;;;27.53;100.00
12775;BME280;6451;42.630;23.382;2023-07-02T10:31:54;93681.66;;;27.04;100.00
12775;BME280;6451;42.630;23.382;2023-07-02T10:34:29;93743.53;;;27.59;100.00
12775;BME280;6451;42.630;23.382;2023-07-02T10:36:56;93738.75;;;27.51;100.00
12775;BME280;6451;42.630;23.382;2023-07-02T10:39:23;93730.88;;;27.49;100.00
12775;BME280;6451;42.630;23.382;2023-07-02T10:41:52;93722.47;;;27.58;100.00
12775;BME280;6451;42.630;23.382;2023-07-02T10:44:18;93751.03;;;27.86;100.00
12775;BME280;6451;42.630;23.382;2023-07-02T10:46:46;93702.81;;;27.53;100.00
12775;BME280;6451;42.630;23.382;2023-07-02T10:49:13;93754.84;;;27.98;100.00
12775;BME280;6451;42.630;23.382;2023-07-02T10:51:41;93745.56;;;27.50;100.00
12775;BME280;6451;42.630;23.382;2023-07-02T10:54:08;93744.69;;;27.86;100.00
12775;BME280;6451;42.630;23.382;2023-07-02T10:56:35;93729.00;;;28.45;97.77
12775;BME280;6451;42.630;23.382;2023-07-02T10:59:03;93727.09;;;28.90;98.49
12775;BME280;6451;42.630;23.382;2023-07-02T11:01:31;93717.88;;;28.75;93.76
12775;BME280;6451;42.630;23.382;2023-07-02T11:03:59;93740.69;;;29.12;96.97
12775;BME280;6451;42.630;23.382;2023-07-02T11:06:26;93729.03;;;29.73;94.30
12775;BME280;6451;42.630;23.382;2023-07-02T11:08:54;93732.69;;;29.79;89.53
12775;BME280;6451;42.630;23.382;2023-07-02T11:11:22;93730.88;;;29.76;88.14
12775;BME280;6451;42.630;23.382;2023-07-02T11:13:50;93723.69;;;29.75;92.49
12775;BME280;6451;42.630;23.382;2023-07-02T11:16:21;93713.34;;;29.46;89.59
12775;BME280;6451;42.630;23.382;2023-07-02T11:18:53;93719.88;;;29.57;86.79
12775;BME280;6451;42.630;23.382;2023-07-02T11:21:20;93718.44;;;29.62;88.32
12775;BME280;6451;42.630;23.382;2023-07-02T11:23:47;93730.09;;;29.46;83.77
12775;BME280;6451;42.630;23.382;2023-07-02T11:26:14;93727.09;;;29.64;85.85
12775;BME280;6451;42.630;23.382;2023-07-02T11:28:49;93732.06;;;29.89;82.97
12775;BME280;6451;42.630;23.382;2023-07-02T11:31:27;93715.28;;;29.89;85.02
12775;BME280;6451;42.630;23.382;2023-07-02T11:33:54;93716.78;;;30.05;81.92
12775;BME280;6451;42.630;23.382;2023-07-02T11:36:22;93727.91;;;30.55;78.09
12775;BME280;6451;42.630;23.382;2023-07-02T11:38:50;93718.78;;;30.40;77.73
12775;BME280;6451;42.630;23.382;2023-07-02T11:41:17;93723.84;;;30.77;74.19
12775;BME280;6451;42.630;23.382;2023-07-02T11:43:44;93720.66;;;30.28;75.91
12775;BME280;6451;42.630;23.382;2023-07-02T11:46:13;93717.25;;;30.39;77.42
12775;BME280;6451;42.630;23.382;2023-07-02T11:48:41;93698.88;;;29.62;77.06
12775;BME280;6451;42.630;23.382;2023-07-02T11:51:08;93725.56;;;29.48;79.00
12775;BME280;6451;42.630;23.382;2023-07-02T11:53:36;93738.50;;;27.82;86.49
12775;BME280;6451;42.630;23.382;2023-07-02T11:56:02;93756.53;;;26.65;96.46
12775;BME280;6451;42.630;23.382;2023-07-02T11:58:29;93738.59;;;26.57;99.96
12775;BME280;6451;42.630;23.382;2023-07-02T12:00:56;93748.78;;;26.87;97.71
12775;BME280;6451;42.630;23.382;2023-07-02T12:03:23;93743.63;;;27.32;96.23
12775;BME280;6451;42.630;23.382;2023-07-02T12:05:51;93741.63;;;27.32;94.81
12775;BME280;6451;42.630;23.382;2023-07-02T12:08:19;93743.09;;;27.94;91.90
12775;BME280;6451;42.630;23.382;2023-07-02T12:10:46;93716.13;;;27.58;91.30
12775;BME280;6451;42.630;23.382;2023-07-02T12:13:13;93745.84;;;28.27;86.47
12775;BME280;6451;42.630;23.382;2023-07-02T12:15:40;93728.59;;;27.81;82.92
12775;BME280;6451;42.630;23.382;2023-07-02T12:18:09;93754.22;;;27.61;82.03
12775;BME280;6451;42.630;23.382;2023-07-02T12:20:36;93753.88;;;27.77;80.93
12775;BME280;6451;42.630;23.382;2023-07-02T12:23:05;93755.34;;;27.45;81.63
12775;BME280;6451;42.630;23.382;2023-07-02T12:25:32;93759.28;;;27.20;82.66
12775;BME280;6451;42.630;23.382;2023-07-02T12:28:01;93750.97;;;26.93;83.10
12775;BME280;6451;42.630;23.382;2023-07-02T12:30:29;93768.44;;;27.11;85.43
12775;BME280;6451;42.630;23.382;2023-07-02T12:32:56;93758.53;;;27.01;87.23
12775;BME280;6451;42.630;23.382;2023-07-02T12:35:23;93755.75;;;26.92;90.21
12775;BME280;6451;42.630;23.382;2023-07-02T12:37:51;93737.16;;;27.26;88.96
12775;BME280;6451;42.630;23.382;2023-07-02T12:40:20;93725.72;;;27.14;90.09
12775;BME280;6451;42.630;23.382;2023-07-02T12:42:48;93747.41;;;27.10;94.58
12775;BME280;6451;42.630;23.382;2023-07-02T12:45:15;93753.72;;;27.20;95.40
12775;BME280;6451;42.630;23.382;2023-07-02T12:47:43;93755.91;;;26.88;100.00
12775;BME280;6451;42.630;23.382;2023-07-02T12:50:10;93759.00;;;26.91;100.00
12775;BME280;6451;42.630;23.382;2023-07-02T12:52:37;93747.09;;;26.72;100.00